createdAt,value
2023-04-18T00:00:17.454Z,81.95
2023-04-18T00:01:17.406Z,81.85
2023-04-18T00:02:17.485Z,81.85
2023-04-18T00:03:17.514Z,82.25
2023-04-18T00:04:17.558Z,81.85
2023-04-18T00:05:17.327Z,81.99
2023-04-18T00:06:17.327Z,81.89
2023-04-18T00:07:17.335Z,81.79
2023-04-18T00:08:17.326Z,81.89
2023-04-18T00:09:17.376Z,82.39
2023-04-18T00:10:17.308Z,82.79
2023-04-18T00:11:17.208Z,82.29
2023-04-18T00:12:17.457Z,82.59
2023-04-18T00:13:17.269Z,82.49
2023-04-18T00:14:17.256Z,82.29
2023-04-18T00:15:17.366Z,82.09
2023-04-18T00:16:17.321Z,82.49
2023-04-18T00:17:17.270Z,82.79
2023-04-18T00:18:17.321Z,82.53
2023-04-18T00:19:17.505Z,82.73
2023-04-18T00:20:17.298Z,83.03
2023-04-18T00:21:17.225Z,83.13
2023-04-18T00:22:17.211Z,83.13
2023-04-18T00:23:17.198Z,83.13
2023-04-18T00:24:18.171Z,83.29
2023-04-18T00:25:17.156Z,83.29
2023-04-18T00:26:17.133Z,82.99
2023-04-18T00:27:17.058Z,82.79
2023-04-18T00:28:17.063Z,82.49
2023-04-18T00:29:17.046Z,82.59
2023-04-18T00:30:17.067Z,82.79
2023-04-18T00:31:17.077Z,82.39
2023-04-18T00:32:17.123Z,82.39
2023-04-18T00:33:17.002Z,81.59
2023-04-18T00:34:16.983Z,81.89
2023-04-18T00:35:16.991Z,82.49
2023-04-18T00:36:17.020Z,82.19
2023-04-18T00:37:17.025Z,82.49
2023-04-18T00:38:16.928Z,82.59
2023-04-18T00:39:16.937Z,82.29
2023-04-18T00:40:16.957Z,82.39
2023-04-18T00:41:18.081Z,82.49
2023-04-18T00:42:16.951Z,82.39
2023-04-18T00:43:16.945Z,82.29
2023-04-18T00:44:16.972Z,81.89
2023-04-18T00:45:16.987Z,81.89
2023-04-18T00:46:16.933Z,81.99
2023-04-18T00:47:16.969Z,82.29
2023-04-18T00:48:16.876Z,82.79
2023-04-18T00:49:16.938Z,82.89
2023-04-18T00:50:16.813Z,82.59
2023-04-18T00:51:16.855Z,82.69
2023-04-18T00:52:16.831Z,82.89
2023-04-18T00:53:16.872Z,82.79
2023-04-18T00:54:16.840Z,82.79
2023-04-18T00:55:16.844Z,82.49
2023-04-18T00:56:16.829Z,82.29
2023-04-18T00:57:16.743Z,82.19
2023-04-18T00:58:16.764Z,81.89
2023-04-18T00:59:16.770Z,81.95
2023-04-18T01:00:16.805Z,81.85
2023-04-18T01:01:16.871Z,82.05
2023-04-18T01:02:16.840Z,81.95
2023-04-18T01:03:16.855Z,81.35
2023-04-18T01:04:17.109Z,81.05
2023-04-18T01:05:16.807Z,81.35
2023-04-18T01:06:17.514Z,81.85
2023-04-18T01:07:16.814Z,81.95
2023-04-18T01:08:16.612Z,81.95
2023-04-18T01:09:16.632Z,81.45
2023-04-18T01:10:16.730Z,81.19
2023-04-18T01:11:16.644Z,81.09
2023-04-18T01:12:16.722Z,81.89
2023-04-18T01:13:17.255Z,81.99
2023-04-18T01:14:16.567Z,81.69
2023-04-18T01:15:16.667Z,81.79
2023-04-18T01:16:16.708Z,81.59
2023-04-18T01:17:16.579Z,81.69
2023-04-18T01:18:16.700Z,81.49
2023-04-18T01:19:16.700Z,81.19
2023-04-18T01:20:16.511Z,81.25
2023-04-18T01:21:16.590Z,81.35
2023-04-18T01:22:16.632Z,81.56
2023-04-18T01:23:16.630Z,81.45
2023-04-18T01:24:16.846Z,80.95
2023-04-18T01:25:16.632Z,81.15
2023-04-18T01:26:16.526Z,80.35
2023-04-18T01:27:16.561Z,80.45
2023-04-18T01:28:16.540Z,80.76
2023-04-18T01:29:17.076Z,81.15
2023-04-18T01:30:16.552Z,81.56
2023-04-18T01:31:16.567Z,80.85
2023-04-18T01:32:16.466Z,80.99
2023-04-18T01:33:16.505Z,81.79
2023-04-18T01:34:16.495Z,81.99
2023-04-18T01:35:16.395Z,81.09
2023-04-18T01:36:16.497Z,81.59
2023-04-18T01:37:16.529Z,81.89
2023-04-18T01:38:16.416Z,81.99
2023-04-18T01:39:16.411Z,81.79
2023-04-18T01:40:16.441Z,81.79
2023-04-18T01:41:16.439Z,81.99
2023-04-18T01:42:16.452Z,81.59
2023-04-18T01:43:16.370Z,81.89
2023-04-18T01:44:16.386Z,82.29
2023-04-18T01:45:16.348Z,82.39
2023-04-18T01:46:16.307Z,82.19
2023-04-18T01:47:16.378Z,81.69
2023-04-18T01:48:16.392Z,81.99
2023-04-18T01:49:17.027Z,81.99
2023-04-18T01:50:16.197Z,81.79
2023-04-18T01:51:16.315Z,82.19
2023-04-18T01:52:16.607Z,82.39
2023-04-18T01:53:16.304Z,82.29
2023-04-18T01:54:16.720Z,82.29
2023-04-18T01:55:16.324Z,81.79
2023-04-18T01:56:16.213Z,81.69
2023-04-18T01:57:16.429Z,82.19
2023-04-18T01:58:16.148Z,82.89
2023-04-18T01:59:16.140Z,82.79
2023-04-18T02:00:16.151Z,81.33
2023-04-18T02:01:16.309Z,82.03
2023-04-18T02:02:16.151Z,83.43
2023-04-18T02:03:16.140Z,83.43
2023-04-18T02:04:16.366Z,83.33
2023-04-18T02:05:16.101Z,82.63
2023-04-18T02:06:15.986Z,81.83
2023-04-18T02:07:16.308Z,81.93
2023-04-18T02:08:16.101Z,82.83
2023-04-18T02:09:16.002Z,83.13
2023-04-18T02:10:16.088Z,82.83
2023-04-18T02:11:16.054Z,82.63
2023-04-18T02:12:16.035Z,82.63
2023-04-18T02:13:15.934Z,82.83
2023-04-18T02:14:16.059Z,83.23
2023-04-18T02:15:15.956Z,83.09
2023-04-18T02:16:15.955Z,83.29
2023-04-18T02:17:15.926Z,82.29
2023-04-18T02:18:15.935Z,81.49
2023-04-18T02:19:15.964Z,81.73
2023-04-18T02:20:15.890Z,81.63
2023-04-18T02:21:15.856Z,82.03
2023-04-18T02:22:15.867Z,82.03
2023-04-18T02:23:15.873Z,82.63
2023-04-18T02:24:15.881Z,82.23
2023-04-18T02:25:15.834Z,81.53
2023-04-18T02:26:15.826Z,81.73
2023-04-18T02:27:15.836Z,82.07
2023-04-18T02:28:15.848Z,82.27
2023-04-18T02:29:15.803Z,82.87
2023-04-18T02:30:15.833Z,83.03
2023-04-18T02:31:15.845Z,82.63
2023-04-18T02:32:15.775Z,83.13
2023-04-18T02:33:15.730Z,83.43
2023-04-18T02:34:17.215Z,83.53
2023-04-18T02:35:16.359Z,83.23
2023-04-18T02:36:17.228Z,83.03
2023-04-18T02:37:15.794Z,82.73
2023-04-18T02:38:15.658Z,81.83
2023-04-18T02:39:16.216Z,81.73
2023-04-18T02:40:16.092Z,82.03
2023-04-18T02:41:15.626Z,82.29
2023-04-18T02:42:15.633Z,82.39
2023-04-18T02:43:15.592Z,81.99
2023-04-18T02:44:15.695Z,80.89
2023-04-18T02:45:15.706Z,80.89
2023-04-18T02:46:16.602Z,81.49
2023-04-18T02:47:15.614Z,81.49
2023-04-18T02:48:15.687Z,81.53
2023-04-18T02:49:15.532Z,81.63
2023-04-18T02:50:15.546Z,81.43
2023-04-18T02:51:15.552Z,81.73
2023-04-18T02:52:16.060Z,81.73
2023-04-18T02:53:15.657Z,81.93
2023-04-18T02:54:15.766Z,82.09
2023-04-18T02:55:15.481Z,81.79
2023-04-18T02:56:15.571Z,81.39
2023-04-18T02:57:15.488Z,80.89
2023-04-18T02:58:16.112Z,80.89
2023-04-18T02:59:16.038Z,80.93
2023-04-18T03:00:15.526Z,81.03
2023-04-18T03:01:15.448Z,81.83
2023-04-18T03:02:15.526Z,82.33
2023-04-18T03:03:15.588Z,82.33
2023-04-18T03:04:16.224Z,82.53
2023-04-18T03:05:18.019Z,82.43
2023-04-18T03:06:15.451Z,82.43
2023-04-18T03:07:15.462Z,81.53
2023-04-18T03:08:15.360Z,81.53
2023-04-18T03:09:15.462Z,81.73
2023-04-18T03:10:16.070Z,82.23
2023-04-18T03:11:16.096Z,82.33
2023-04-18T03:12:15.491Z,82.43
2023-04-18T03:13:15.382Z,81.93
2023-04-18T03:14:15.516Z,82.03
2023-04-18T03:15:15.389Z,81.93
2023-04-18T03:16:15.436Z,82.03
2023-04-18T03:17:15.399Z,82.43
2023-04-18T03:18:16.042Z,81.83
2023-04-18T03:19:15.233Z,81.59
2023-04-18T03:20:15.320Z,81.69
2023-04-18T03:21:15.245Z,81.89
2023-04-18T03:22:15.777Z,81.69
2023-04-18T03:23:15.255Z,81.79
2023-04-18T03:24:15.357Z,82.09
2023-04-18T03:25:15.171Z,81.99
2023-04-18T03:26:15.182Z,81.49
2023-04-18T03:27:15.182Z,81.39
2023-04-18T03:28:15.187Z,81.49
2023-04-18T03:29:15.181Z,81.09
2023-04-18T03:30:15.102Z,81.19
2023-04-18T03:31:15.171Z,81.53
2023-04-18T03:32:15.205Z,81.33
2023-04-18T03:33:16.045Z,81.33
2023-04-18T03:34:16.044Z,81.53
2023-04-18T03:35:15.114Z,81.53
2023-04-18T03:36:15.112Z,81.23
2023-04-18T03:37:15.046Z,82.13
2023-04-18T03:38:15.046Z,82.17
2023-04-18T03:39:15.054Z,82.47
2023-04-18T03:40:15.580Z,82.37
2023-04-18T03:41:14.974Z,82.53
2023-04-18T03:42:14.971Z,82.33
2023-04-18T03:43:14.981Z,82.23
2023-04-18T03:44:15.295Z,81.93
2023-04-18T03:45:14.895Z,82.13
2023-04-18T03:46:14.957Z,81.73
2023-04-18T03:47:14.908Z,82.03
2023-04-18T03:48:15.110Z,82.33
2023-04-18T03:49:15.002Z,82.43
2023-04-18T03:50:14.904Z,82.23
2023-04-18T03:51:14.821Z,82.13
2023-04-18T03:52:14.836Z,82.23
2023-04-18T03:53:14.849Z,82.03
2023-04-18T03:54:15.075Z,82.13
2023-04-18T03:55:14.752Z,82.23
2023-04-18T03:56:14.769Z,82.37
2023-04-18T03:57:14.779Z,82.37
2023-04-18T03:58:14.778Z,82.57
2023-04-18T03:59:14.789Z,82.47
2023-04-18T04:00:14.792Z,82.47
2023-04-18T04:01:14.696Z,82.47
2023-04-18T04:02:14.759Z,82.77
2023-04-18T04:03:14.789Z,82.97
2023-04-18T04:04:15.034Z,82.77
2023-04-18T04:05:14.750Z,82.77
2023-04-18T04:06:14.729Z,82.67
2023-04-18T04:07:14.746Z,82.97
2023-04-18T04:08:14.638Z,82.87
2023-04-18T04:09:14.654Z,82.77
2023-04-18T04:10:14.665Z,82.87
2023-04-18T04:11:14.757Z,82.87
2023-04-18T04:12:14.673Z,83.07
2023-04-18T04:13:14.576Z,83.17
2023-04-18T04:14:14.772Z,83.07
2023-04-18T04:15:14.588Z,83.07
2023-04-18T04:16:14.586Z,82.77
2023-04-18T04:17:15.518Z,82.57
2023-04-18T04:18:14.500Z,82.67
2023-04-18T04:19:14.522Z,82.87
2023-04-18T04:20:14.594Z,82.97
2023-04-18T04:21:14.523Z,83.17
2023-04-18T04:22:14.529Z,82.97
2023-04-18T04:23:14.555Z,82.97
2023-04-18T04:24:15.605Z,82.97
2023-04-18T04:25:14.554Z,82.87
2023-04-18T04:26:14.457Z,82.67
2023-04-18T04:27:14.559Z,82.57
2023-04-18T04:28:14.476Z,82.67
2023-04-18T04:29:14.474Z,82.67
2023-04-18T04:30:14.484Z,82.47
2023-04-18T04:31:14.488Z,82.37
2023-04-18T04:32:14.382Z,82.47
2023-04-18T04:33:14.552Z,82.43
2023-04-18T04:34:14.673Z,82.33
2023-04-18T04:35:14.414Z,82.23
2023-04-18T04:36:14.545Z,82.23
2023-04-18T04:37:14.358Z,82.13
2023-04-18T04:38:14.356Z,82.13
2023-04-18T04:39:14.373Z,82.27
2023-04-18T04:40:14.282Z,82.17
2023-04-18T04:41:14.448Z,82.17
2023-04-18T04:42:14.351Z,82.27
2023-04-18T04:43:14.295Z,82.37
2023-04-18T04:44:14.478Z,82.47
2023-04-18T04:45:14.270Z,82.77
2023-04-18T04:46:14.588Z,82.67
2023-04-18T04:47:14.202Z,82.67
2023-04-18T04:48:14.216Z,82.97
2023-04-18T04:49:14.220Z,83.17
2023-04-18T04:50:14.229Z,83.07
2023-04-18T04:51:14.247Z,82.97
2023-04-18T04:52:14.159Z,83.17
2023-04-18T04:53:14.154Z,83.17
2023-04-18T04:54:14.443Z,83.17
2023-04-18T04:55:14.179Z,83.27
2023-04-18T04:56:14.163Z,83.17
2023-04-18T04:57:15.087Z,83.17
2023-04-18T04:58:14.181Z,83.27
2023-04-18T04:59:14.239Z,83.37
2023-04-18T05:00:14.108Z,83.27
2023-04-18T05:01:14.174Z,83.37
2023-04-18T05:02:14.175Z,83.27
2023-04-18T05:03:14.191Z,83.17
2023-04-18T05:04:14.385Z,83.07
2023-04-18T05:05:14.096Z,83.07
2023-04-18T05:06:14.020Z,82.97
2023-04-18T05:07:14.155Z,82.93
2023-04-18T05:08:14.020Z,82.93
2023-04-18T05:09:13.954Z,82.73
2023-04-18T05:10:13.975Z,82.43
2023-04-18T05:11:14.079Z,82.63
2023-04-18T05:12:13.975Z,82.43
2023-04-18T05:13:14.014Z,82.33
2023-04-18T05:14:14.186Z,82.57
2023-04-18T05:15:14.098Z,82.83
2023-04-18T05:16:13.932Z,82.83
2023-04-18T05:17:14.006Z,82.73
2023-04-18T05:18:14.017Z,82.97
2023-04-18T05:19:14.032Z,82.77
2023-04-18T05:20:13.900Z,82.87
2023-04-18T05:21:14.163Z,83.17
2023-04-18T05:22:13.836Z,82.97
2023-04-18T05:23:13.841Z,82.77
2023-04-18T05:24:14.153Z,82.67
2023-04-18T05:25:13.941Z,82.67
2023-04-18T05:26:13.869Z,82.67
2023-04-18T05:27:14.066Z,82.77
2023-04-18T05:28:13.881Z,82.87
2023-04-18T05:29:13.794Z,82.87
2023-04-18T05:30:13.789Z,82.87
2023-04-18T05:31:13.814Z,83.07
2023-04-18T05:32:13.700Z,82.77
2023-04-18T05:33:13.701Z,82.97
2023-04-18T05:34:13.932Z,83.17
2023-04-18T05:35:13.844Z,83.37
2023-04-18T05:36:13.781Z,83.67
2023-04-18T05:37:13.746Z,83.67
2023-04-18T05:38:13.720Z,83.37
2023-04-18T05:39:13.694Z,83.37
2023-04-18T05:40:13.635Z,83.27
2023-04-18T05:41:13.721Z,83.27
2023-04-18T05:42:17.123Z,83.37
2023-04-18T05:43:13.715Z,83.27
2023-04-18T05:44:13.600Z,83.17
2023-04-18T05:45:13.584Z,83.67
2023-04-18T05:46:13.636Z,83.91
2023-04-18T05:47:13.726Z,83.71
2023-04-18T05:48:13.625Z,83.91
2023-04-18T05:49:13.618Z,83.87
2023-04-18T05:50:13.490Z,83.87
2023-04-18T05:51:13.543Z,83.77
2023-04-18T05:52:13.638Z,83.97
2023-04-18T05:53:13.631Z,83.87
2023-04-18T05:54:13.797Z,83.67
2023-04-18T05:55:13.552Z,83.67
2023-04-18T05:56:13.462Z,83.67
2023-04-18T05:57:14.355Z,83.57
2023-04-18T05:58:13.484Z,83.67
2023-04-18T05:59:13.464Z,83.57
2023-04-18T06:00:14.635Z,83.67
2023-04-18T06:01:13.489Z,83.77
2023-04-18T06:02:13.628Z,83.77
2023-04-18T06:03:13.566Z,83.77
2023-04-18T06:04:14.158Z,83.77
2023-04-18T06:05:13.661Z,83.87
2023-04-18T06:06:14.166Z,83.97
2023-04-18T06:07:13.401Z,83.77
2023-04-18T06:08:13.442Z,83.97
2023-04-18T06:09:13.345Z,83.97
2023-04-18T06:10:13.405Z,83.87
2023-04-18T06:11:13.352Z,83.87
2023-04-18T06:12:13.601Z,83.57
2023-04-18T06:13:13.297Z,83.87
2023-04-18T06:14:13.664Z,83.97
2023-04-18T06:15:13.272Z,83.67
2023-04-18T06:16:13.290Z,83.77
2023-04-18T06:17:13.220Z,84.17
2023-04-18T06:18:13.580Z,84.17
2023-04-18T06:19:13.213Z,84.17
2023-04-18T06:20:13.209Z,84.07
2023-04-18T06:21:13.204Z,84.17
2023-04-18T06:22:13.225Z,84.17
2023-04-18T06:23:13.244Z,84.07
2023-04-18T06:24:13.520Z,83.97
2023-04-18T06:25:13.152Z,84.07
2023-04-18T06:26:13.153Z,84.07
2023-04-18T06:27:24.422Z,84.17
2023-04-18T06:28:13.134Z,84.07
2023-04-18T06:29:13.097Z,83.97
2023-04-18T06:30:13.151Z,84.07
2023-04-18T06:31:13.147Z,84.17
2023-04-18T06:32:13.052Z,84.17
2023-04-18T06:33:13.090Z,84.17
2023-04-18T06:34:13.447Z,84.07
2023-04-18T06:35:13.112Z,84.07
2023-04-18T06:36:13.134Z,84.27
2023-04-18T06:37:13.019Z,84.27
2023-04-18T06:38:13.005Z,84.27
2023-04-18T06:39:13.009Z,84.17
2023-04-18T06:40:13.016Z,84.27
2023-04-18T06:41:13.018Z,84.37
2023-04-18T06:42:13.063Z,84.37
2023-04-18T06:43:12.957Z,84.37
2023-04-18T06:44:12.934Z,84.37
2023-04-18T06:45:12.942Z,84.47
2023-04-18T06:46:13.072Z,84.27
2023-04-18T06:47:12.952Z,84.37
2023-04-18T06:48:12.966Z,84.37
2023-04-18T06:49:12.897Z,84.37
2023-04-18T06:50:12.976Z,84.47
2023-04-18T06:51:12.981Z,84.47
2023-04-18T06:52:12.952Z,84.37
2023-04-18T06:53:12.900Z,84.47
2023-04-18T06:54:13.143Z,84.47
2023-04-18T06:55:12.831Z,84.57
2023-04-18T06:56:12.942Z,84.47
2023-04-18T06:57:12.823Z,84.37
2023-04-18T06:58:12.857Z,84.57
2023-04-18T06:59:13.052Z,84.47
2023-04-18T07:00:12.728Z,84.57
2023-04-18T07:01:12.821Z,84.67
2023-04-18T07:02:12.959Z,84.67
2023-04-18T07:03:13.028Z,84.57
2023-04-18T07:04:13.173Z,84.47
2023-04-18T07:05:12.789Z,84.37
2023-04-18T07:06:12.684Z,84.47
2023-04-18T07:07:12.740Z,84.67
2023-04-18T07:08:12.683Z,84.57
2023-04-18T07:09:12.733Z,84.77
2023-04-18T07:10:12.706Z,84.77
2023-04-18T07:11:12.710Z,84.77
2023-04-18T07:12:12.621Z,84.67
2023-04-18T07:13:12.645Z,84.67
2023-04-18T07:14:12.846Z,84.67
2023-04-18T07:15:12.637Z,84.57
2023-04-18T07:16:12.669Z,84.57
2023-04-18T07:17:12.706Z,84.57
2023-04-18T07:18:14.549Z,84.57
2023-04-18T07:19:12.557Z,84.43
2023-04-18T07:20:14.254Z,84.53
2023-04-18T07:21:12.585Z,84.43
2023-04-18T07:22:12.596Z,84.33
2023-04-18T07:23:12.563Z,84.33
2023-04-18T07:24:12.703Z,84.43
2023-04-18T07:25:12.499Z,84.53
2023-04-18T07:26:12.489Z,84.73
2023-04-18T07:27:12.487Z,84.73
2023-04-18T07:28:12.501Z,84.73
2023-04-18T07:29:12.456Z,84.73
2023-04-18T07:30:12.426Z,84.83
2023-04-18T07:31:12.455Z,85.03
2023-04-18T07:32:12.467Z,85.13
2023-04-18T07:33:12.458Z,85.03
2023-04-18T07:34:12.648Z,85.03
2023-04-18T07:35:12.372Z,85.03
2023-04-18T07:36:12.370Z,85.03
2023-04-18T07:37:14.673Z,84.93
2023-04-18T07:38:12.361Z,84.93
2023-04-18T07:39:12.367Z,85.03
2023-04-18T07:40:12.735Z,85.13
2023-04-18T07:41:12.313Z,85.13
2023-04-18T07:42:12.316Z,85.23
2023-04-18T07:43:12.283Z,85.33
2023-04-18T07:44:12.517Z,85.23
2023-04-18T07:45:12.708Z,85.23
2023-04-18T07:46:12.339Z,85.13
2023-04-18T07:47:12.249Z,85.13
2023-04-18T07:48:12.297Z,85.03
2023-04-18T07:49:12.502Z,85.03
2023-04-18T07:50:12.479Z,85.23
2023-04-18T07:51:12.353Z,85.03
2023-04-18T07:52:12.189Z,85.13
2023-04-18T07:53:12.359Z,85.03
2023-04-18T07:54:12.276Z,85.23
2023-04-18T07:55:12.888Z,85.43
2023-04-18T07:56:12.276Z,85.43
2023-04-18T07:57:12.214Z,85.53
2023-04-18T07:58:12.119Z,85.63
2023-04-18T07:59:12.444Z,85.73
2023-04-18T08:00:13.115Z,85.93
2023-04-18T08:01:12.106Z,86.23
2023-04-18T08:02:13.191Z,86.33
2023-04-18T08:03:12.724Z,86.43
2023-04-18T08:04:12.326Z,86.43
2023-04-18T08:05:12.227Z,86.53
2023-04-18T08:06:12.076Z,86.53
2023-04-18T08:07:12.045Z,86.43
2023-04-18T08:08:12.154Z,86.63
2023-04-18T08:09:12.310Z,86.33
2023-04-18T08:10:12.169Z,86.43
2023-04-18T08:11:12.080Z,86.63
2023-04-18T08:12:11.987Z,86.83
2023-04-18T08:13:11.974Z,86.93
2023-04-18T08:14:12.926Z,87.03
2023-04-18T08:15:12.010Z,87.03
2023-04-18T08:16:12.552Z,87.03
2023-04-18T08:17:11.913Z,87.03
2023-04-18T08:18:11.917Z,87.13
2023-04-18T08:19:12.170Z,86.93
2023-04-18T08:20:13.758Z,86.83
2023-04-18T08:21:11.947Z,86.93
2023-04-18T08:22:12.669Z,86.93
2023-04-18T08:23:13.215Z,86.93
2023-04-18T08:24:11.843Z,86.83
2023-04-18T08:25:11.849Z,86.93
2023-04-18T08:26:11.877Z,86.93
2023-04-18T08:27:11.878Z,87.03
2023-04-18T08:28:11.966Z,87.13
2023-04-18T08:29:12.011Z,87.23
2023-04-18T08:30:11.806Z,87.63
2023-04-18T08:31:11.823Z,87.53
2023-04-18T08:32:12.118Z,87.43
2023-04-18T08:33:11.817Z,87.53
2023-04-18T08:34:11.726Z,87.63
2023-04-18T08:35:11.820Z,87.63
2023-04-18T08:36:11.743Z,87.63
2023-04-18T08:37:11.746Z,87.73
2023-04-18T08:38:11.826Z,87.53
2023-04-18T08:39:12.278Z,87.43
2023-04-18T08:40:11.770Z,87.34
2023-04-18T08:41:11.661Z,87.53
2023-04-18T08:42:11.679Z,87.53
2023-04-18T08:43:11.678Z,87.63
2023-04-18T08:44:11.757Z,87.63
2023-04-18T08:45:12.619Z,87.53
2023-04-18T08:46:11.625Z,87.03
2023-04-18T08:47:11.606Z,87.13
2023-04-18T08:48:11.920Z,87.34
2023-04-18T08:49:12.141Z,87.53
2023-04-18T08:50:11.634Z,87.43
2023-04-18T08:51:12.135Z,87.63
2023-04-18T08:52:11.630Z,87.73
2023-04-18T08:53:11.550Z,87.83
2023-04-18T08:54:11.558Z,87.43
2023-04-18T08:55:12.163Z,87.53
2023-04-18T08:56:11.774Z,87.43
2023-04-18T08:57:11.464Z,86.63
2023-04-18T08:58:11.470Z,86.83
2023-04-18T08:59:11.645Z,87.13
2023-04-18T09:00:11.489Z,87.03
2023-04-18T09:01:11.567Z,87.13
2023-04-18T09:02:11.732Z,87.34
2023-04-18T09:03:12.132Z,87.23
2023-04-18T09:04:11.520Z,87.63
2023-04-18T09:05:11.749Z,87.48
2023-04-18T09:06:11.426Z,87.18
2023-04-18T09:07:11.459Z,87.37
2023-04-18T09:08:11.548Z,87.57
2023-04-18T09:09:11.545Z,87.77
2023-04-18T09:10:11.542Z,87.57
2023-04-18T09:11:11.460Z,87.57
2023-04-18T09:12:11.361Z,87.77
2023-04-18T09:13:11.370Z,87.98
2023-04-18T09:14:11.532Z,88.07
2023-04-18T09:15:11.384Z,88.07
2023-04-18T09:16:11.412Z,88.18
2023-04-18T09:17:11.401Z,87.98
2023-04-18T09:18:11.522Z,87.83
2023-04-18T09:19:11.420Z,87.83
2023-04-18T09:20:11.311Z,87.83
2023-04-18T09:21:11.320Z,87.63
2023-04-18T09:22:11.226Z,87.63
2023-04-18T09:23:11.641Z,87.83
2023-04-18T09:24:11.442Z,87.63
2023-04-18T09:25:11.237Z,87.53
2023-04-18T09:26:11.363Z,87.63
2023-04-18T09:27:11.243Z,87.73
2023-04-18T09:28:11.169Z,87.73
2023-04-18T09:29:11.236Z,87.73
2023-04-18T09:30:11.155Z,87.73
2023-04-18T09:31:12.319Z,87.73
2023-04-18T09:32:11.192Z,87.73
2023-04-18T09:33:11.109Z,87.73
2023-04-18T09:34:11.121Z,87.83
2023-04-18T09:35:11.106Z,87.93
2023-04-18T09:36:11.124Z,87.93
2023-04-18T09:37:11.364Z,87.83
2023-04-18T09:38:11.129Z,87.73
2023-04-18T09:39:11.030Z,87.73
2023-04-18T09:40:11.131Z,87.73
2023-04-18T09:41:11.044Z,87.53
2023-04-18T09:42:11.145Z,87.63
2023-04-18T09:43:11.049Z,87.73
2023-04-18T09:44:14.047Z,87.63
2023-04-18T09:45:10.987Z,87.49
2023-04-18T09:46:11.019Z,87.39
2023-04-18T09:47:10.986Z,87.59
2023-04-18T09:48:11.167Z,87.73
2023-04-18T09:49:11.302Z,87.69
2023-04-18T09:50:10.918Z,87.59
2023-04-18T09:51:10.999Z,87.49
2023-04-18T09:52:10.932Z,87.49
2023-04-18T09:53:10.932Z,87.49
2023-04-18T09:54:11.048Z,87.59
2023-04-18T09:55:10.935Z,87.69
2023-04-18T09:56:10.934Z,87.59
2023-04-18T09:57:10.853Z,87.49
2023-04-18T09:58:10.956Z,87.49
2023-04-18T09:59:10.863Z,87.49
2023-04-18T10:00:10.862Z,87.39
2023-04-18T10:01:10.919Z,87.49
2023-04-18T10:02:10.804Z,87.49
2023-04-18T10:03:10.911Z,87.59
2023-04-18T10:04:10.839Z,87.69
2023-04-18T10:05:11.745Z,87.69
2023-04-18T10:06:10.796Z,87.59
2023-04-18T10:07:11.637Z,87.59
2023-04-18T10:08:10.769Z,87.69
2023-04-18T10:09:10.958Z,87.79
2023-04-18T10:10:11.236Z,87.79
2023-04-18T10:11:10.713Z,87.79
2023-04-18T10:12:10.843Z,87.89
2023-04-18T10:13:10.648Z,87.79
2023-04-18T10:14:10.755Z,87.79
2023-04-18T10:15:10.775Z,87.79
2023-04-18T10:16:10.762Z,87.79
2023-04-18T10:17:10.673Z,87.69
2023-04-18T10:18:10.700Z,87.69
2023-04-18T10:19:10.711Z,87.79
2023-04-18T10:20:10.687Z,87.69
2023-04-18T10:21:10.586Z,87.59
2023-04-18T10:22:10.592Z,87.69
2023-04-18T10:23:10.606Z,87.59
2023-04-18T10:24:10.559Z,87.69
2023-04-18T10:25:10.527Z,87.29
2023-04-18T10:26:10.611Z,87.59
2023-04-18T10:27:10.722Z,87.69
2023-04-18T10:28:10.542Z,87.89
2023-04-18T10:29:10.548Z,87.89
2023-04-18T10:30:10.536Z,88.09
2023-04-18T10:31:10.527Z,87.89
2023-04-18T10:32:10.467Z,87.89
2023-04-18T10:33:18.361Z,88.09
2023-04-18T10:34:10.490Z,87.79
2023-04-18T10:35:10.489Z,87.89
2023-04-18T10:36:10.595Z,87.79
2023-04-18T10:37:10.377Z,87.69
2023-04-18T10:38:10.698Z,87.59
2023-04-18T10:39:10.613Z,87.39
2023-04-18T10:40:10.507Z,87.69
2023-04-18T10:41:10.377Z,87.59
2023-04-18T10:42:10.384Z,87.69
2023-04-18T10:43:10.337Z,87.49
2023-04-18T10:44:10.874Z,87.39
2023-04-18T10:45:10.452Z,87.83
2023-04-18T10:46:20.536Z,87.79
2023-04-18T10:47:10.402Z,87.93
2023-04-18T10:48:10.386Z,87.99
2023-04-18T10:49:10.273Z,87.89
2023-04-18T10:50:10.617Z,87.99
2023-04-18T10:51:10.441Z,87.99
2023-04-18T10:52:11.717Z,87.79
2023-04-18T10:53:10.294Z,87.69
2023-04-18T10:54:10.313Z,87.79
2023-04-18T10:55:10.470Z,87.69
2023-04-18T10:56:15.694Z,87.59
2023-04-18T10:57:10.274Z,87.59
2023-04-18T10:58:10.179Z,87.79
2023-04-18T10:59:10.494Z,87.79
2023-04-18T11:00:10.198Z,88.09
2023-04-18T11:01:10.296Z,88.59
2023-04-18T11:02:10.250Z,88.29
2023-04-18T11:03:10.299Z,88.49
2023-04-18T11:04:10.224Z,89.09
2023-04-18T11:05:10.177Z,89.39
2023-04-18T11:06:10.129Z,89.19
2023-04-18T11:07:10.216Z,89.19
2023-04-18T11:08:10.092Z,88.35
2023-04-18T11:09:11.203Z,88.39
2023-04-18T11:10:10.165Z,88.69
2023-04-18T11:11:10.062Z,88.95
2023-04-18T11:12:10.124Z,88.65
2023-04-18T11:13:10.100Z,88.45
2023-04-18T11:14:10.142Z,88.25
2023-04-18T11:15:10.045Z,88.35
2023-04-18T11:16:10.131Z,88.35
2023-04-18T11:17:10.101Z,88.45
2023-04-18T11:18:10.107Z,88.45
2023-04-18T11:19:10.091Z,88.55
2023-04-18T11:20:09.998Z,88.75
2023-04-18T11:21:10.154Z,88.55
2023-04-18T11:22:09.965Z,88.45
2023-04-18T11:23:09.961Z,88.69
2023-04-18T11:24:09.953Z,88.89
2023-04-18T11:25:09.977Z,89.19
2023-04-18T11:26:10.753Z,89.49
2023-04-18T11:27:09.993Z,89.59
2023-04-18T11:28:10.701Z,89.19
2023-04-18T11:29:09.988Z,89.49
2023-04-18T11:30:10.026Z,90.25
2023-04-18T11:31:09.911Z,90.45
2023-04-18T11:32:10.055Z,89.65
2023-04-18T11:33:09.941Z,90.65
2023-04-18T11:34:09.917Z,90.05
2023-04-18T11:35:09.840Z,89.85
2023-04-18T11:36:12.860Z,89.70
2023-04-18T11:37:09.851Z,89.11
2023-04-18T11:38:09.750Z,88.90
2023-04-18T11:39:09.756Z,89.20
2023-04-18T11:40:09.857Z,88.90
2023-04-18T11:41:09.759Z,88.71
2023-04-18T11:42:09.811Z,88.90
2023-04-18T11:43:09.772Z,88.60
2023-04-18T11:44:09.684Z,89.31
2023-04-18T11:45:10.096Z,89.81
2023-04-18T11:46:09.902Z,88.90
2023-04-18T11:47:09.694Z,88.01
2023-04-18T11:48:10.441Z,88.75
2023-04-18T11:49:09.675Z,88.95
2023-04-18T11:50:09.737Z,89.75
2023-04-18T11:51:09.769Z,89.35
2023-04-18T11:52:09.620Z,89.15
2023-04-18T11:53:09.678Z,88.95
2023-04-18T11:54:09.712Z,89.05
2023-04-18T11:55:09.653Z,88.79
2023-04-18T11:56:09.563Z,89.39
2023-04-18T11:57:10.352Z,89.69
2023-04-18T11:58:09.629Z,90.09
2023-04-18T11:59:09.639Z,90.39
2023-04-18T12:00:09.639Z,90.79
2023-04-18T12:01:09.488Z,91.49
2023-04-18T12:02:16.074Z,91.83
2023-04-18T12:03:11.847Z,92.49
2023-04-18T12:04:09.753Z,92.99
2023-04-18T12:05:09.734Z,92.89
2023-04-18T12:06:09.787Z,92.49
2023-04-18T12:07:09.428Z,92.39
2023-04-18T12:08:09.553Z,92.09
2023-04-18T12:09:09.438Z,91.95
2023-04-18T12:10:09.562Z,91.64
2023-04-18T12:11:09.479Z,91.75
2023-04-18T12:12:09.456Z,91.39
2023-04-18T12:13:09.458Z,91.79
2023-04-18T12:14:09.430Z,92.25
2023-04-18T12:15:09.514Z,91.85
2023-04-18T12:16:09.872Z,92.25
2023-04-18T12:17:09.599Z,92.44
2023-04-18T12:18:09.517Z,92.44
2023-04-18T12:19:12.312Z,92.35
2023-04-18T12:20:09.412Z,92.05
2023-04-18T12:21:09.511Z,91.85
2023-04-18T12:22:09.421Z,91.64
2023-04-18T12:23:09.424Z,91.25
2023-04-18T12:24:09.330Z,90.65
2023-04-18T12:25:09.323Z,90.84
2023-04-18T12:26:09.334Z,91.45
2023-04-18T12:27:09.372Z,91.15
2023-04-18T12:28:09.473Z,91.05
2023-04-18T12:29:10.483Z,91.45
2023-04-18T12:30:09.265Z,91.15
2023-04-18T12:31:09.219Z,91.35
2023-04-18T12:32:09.392Z,89.09
2023-04-18T12:33:09.996Z,89.09
2023-04-18T12:34:09.182Z,89.03
2023-04-18T12:35:09.178Z,89.03
2023-04-18T12:36:09.101Z,86.68
2023-04-18T12:37:09.104Z,87.98
2023-04-18T12:38:09.104Z,89.07
2023-04-18T12:39:09.275Z,88.48
2023-04-18T12:40:09.134Z,89.42
2023-04-18T12:41:10.368Z,90.32
2023-04-18T12:42:09.138Z,91.12
2023-04-18T12:43:09.108Z,91.82
2023-04-18T12:44:09.055Z,91.72
2023-04-18T12:45:09.148Z,92.12
2023-04-18T12:46:09.089Z,92.18
2023-04-18T12:47:09.182Z,91.28
2023-04-18T12:48:09.076Z,91.28
2023-04-18T12:49:09.107Z,90.37
2023-04-18T12:50:11.212Z,90.17
2023-04-18T12:51:10.030Z,90.28
2023-04-18T12:52:08.988Z,90.28